Time;durP1;ratioP1;P1;durP2;ratioP2;P2;SDS_P1;SDS_P2;PMS_P1;PMS_P2;Temp;Humidity;BMP_temperature;BMP_pressure;BME280_temperature;BME280_humidity;BME280_pressure;Samples;Min_cycle;Max_cycle;Signal;HPM_P1;HPM_P2
2023/08/02 16:27:38;;;;;;;2.43;2.23;;;;;;;25.68;51.67;96059.19;5104556;27;20589;-78
2023/08/02 16:30:06;;;;;;;2.97;2.53;;;;;;;25.56;51.35;96039.78;5105622;28;20460;-80
2023/08/02 16:32:33;;;;;;;3.07;2.77;;;;;;;25.22;51.88;96060.44;5102905;28;20449;-79
2023/08/02 16:35:00;;;;;;;2.70;2.50;;;;;;;25.05;53.42;96053.97;5102244;28;20951;-70
2023/08/02 16:37:27;;;;;;;2.90;2.37;;;;;;;24.95;53.59;96050.81;5104792;28;20481;-71
2023/08/02 16:39:54;;;;;;;3.47;2.90;;;;;;;24.86;54.16;96069.47;5102120;28;20564;-71
2023/08/02 16:42:20;;;;;;;3.30;2.60;;;;;;;24.71;55.65;96073.69;5100019;28;20464;-71
2023/08/02 16:44:49;;;;;;;2.70;2.50;;;;;;;24.62;54.72;96062.72;5098719;28;20907;-71
2023/08/02 16:47:15;;;;;;;2.93;2.60;;;;;;;24.48;55.27;96069.69;5106889;28;20489;-71
2023/08/02 16:49:42;;;;;;;3.10;2.90;;;;;;;24.34;56.13;96108.72;5102547;28;22428;-71
2023/08/02 16:52:09;;;;;;;4.63;3.00;;;;;;;24.17;57.71;96123.44;5104451;28;20462;-71
2023/08/02 16:54:36;;;;;;;3.20;2.67;;;;;;;23.60;60.85;96126.75;5099736;28;20939;-72
2023/08/02 16:57:03;;;;;;;3.50;3.20;;;;;;;22.22;68.29;96131.69;5102799;28;20469;-75
2023/08/02 16:59:30;;;;;;;3.23;2.87;;;;;;;21.19;70.10;96174.28;5096825;28;20467;-73
2023/08/02 17:01:59;;;;;;;3.30;3.00;;;;;;;20.60;72.62;96178.28;5100263;28;21108;-73
2023/08/02 17:04:26;;;;;;;3.20;3.00;;;;;;;20.52;72.86;96168.03;5104739;28;20461;-74
2023/08/02 17:06:53;;;;;;;3.50;3.20;;;;;;;20.20;72.79;96167.09;5105503;28;20503;-75
2023/08/02 17:09:20;;;;;;;4.93;3.30;;;;;;;19.94;75.04;96155.88;5100716;28;21048;-74
2023/08/02 17:11:47;;;;;;;4.07;2.60;;;;;;;19.85;76.57;96148.66;5100740;28;20457;-74
2023/08/02 17:14:14;;;;;;;3.33;3.03;;;;;;;19.85;78.02;96143.97;5100160;28;20457;-74
2023/08/02 17:16:41;;;;;;;3.23;2.93;;;;;;;19.92;78.31;96149.88;5103274;27;20532;-74
2023/08/02 17:19:09;;;;;;;3.73;3.43;;;;;;;20.01;79.61;96155.44;5101047;28;21430;-73
2023/08/02 17:21:36;;;;;;;4.47;3.20;;;;;;;20.03;80.43;96115.56;5094108;28;20529;-73
2023/08/02 17:24:03;;;;;;;3.30;3.03;;;;;;;20.11;80.13;96120.34;5104046;28;20539;-73
2023/08/02 17:26:30;;;;;;;3.90;3.60;;;;;;;20.35;79.58;96149.44;5103175;28;21088;-73
2023/08/02 17:28:57;;;;;;;4.20;3.47;;;;;;;20.30;80.79;96146.81;5102802;28;20457;-73
2023/08/02 17:31:24;;;;;;;4.47;3.87;;;;;;;20.44;80.46;96167.66;5101446;27;20464;-73
2023/08/02 17:33:51;;;;;;;3.73;3.27;;;;;;;20.46;81.23;96170.09;5101968;28;20516;-74
2023/08/02 17:36:20;;;;;;;3.67;3.47;;;;;;;20.49;81.85;96157.66;5104003;28;20522;-75
2023/08/02 17:38:46;;;;;;;3.40;3.10;;;;;;;20.47;80.80;96155.22;5088880;28;20454;-74
2023/08/02 17:41:14;;;;;;;3.50;3.20;;;;;;;20.58;81.23;96167.59;5083308;28;20459;-73
2023/08/02 17:43:41;;;;;;;3.43;3.13;;;;;;;20.63;80.75;96189.47;5087819;28;20455;-74
2023/08/02 17:46:08;;;;;;;3.97;3.57;;;;;;;20.60;80.55;96181.84;5085864;28;20480;-74
2023/08/02 17:48:35;;;;;;;3.40;3.20;;;;;;;20.64;79.98;96188.34;5090356;28;20661;-73
2023/08/02 17:51:02;;;;;;;3.30;3.00;;;;;;;20.68;79.27;96200.34;5088494;28;21741;-74
2023/08/02 17:53:32;;;;;;;3.10;2.90;;;;;;;20.82;78.35;96188.44;5089612;28;20509;-73
2023/08/02 17:55:59;;;;;;;2.80;2.60;;;;;;;20.83;76.96;96187.31;5083626;28;20858;-73
2023/08/02 17:58:27;;;;;;;2.80;2.60;;;;;;;20.93;77.07;96200.84;5087727;28;20458;-73
2023/08/02 18:00:56;;;;;;;2.80;2.60;;;;;;;20.81;77.34;96182.13;5088714;28;20466;-73
2023/08/02 18:03:23;;;;;;;4.27;2.60;;;;;;;20.85;77.05;96205.13;5088140;28;20960;-74
2023/08/02 18:05:51;;;;;;;2.90;2.53;;;;;;;20.83;75.00;96217.56;5083185;28;20562;-73
2023/08/02 18:08:18;;;;;;;2.40;2.20;;;;;;;20.89;73.56;96236.41;5087371;28;20478;-73
2023/08/02 18:10:46;;;;;;;2.50;2.27;;;;;;;20.85;72.98;96207.06;5064270;28;20827;-73
2023/08/02 18:13:13;;;;;;;2.00;1.80;;;;;;;20.88;72.09;96189.94;5056358;28;20542;-73
2023/08/02 18:15:40;;;;;;;2.20;2.10;;;;;;;20.92;70.77;96177.19;5058385;28;20485;-73
2023/08/02 18:18:06;;;;;;;2.33;2.13;;;;;;;21.05;69.59;96181.81;5049486;28;20477;-73
2023/08/02 18:20:34;;;;;;;3.20;1.97;;;;;;;21.14;67.55;96186.22;5060124;28;20574;-73
2023/08/02 18:23:01;;;;;;;2.90;1.67;;;;;;;21.17;66.21;96194.97;5056743;28;20580;-73
2023/08/02 18:25:27;;;;;;;1.70;1.60;;;;;;;21.20;65.11;96195.16;5058245;28;20456;-73
2023/08/02 18:27:58;;;;;;;1.67;1.57;;;;;;;21.20;65.20;96184.16;5057409;28;20526;-73
2023/08/02 18:30:24;;;;;;;1.83;1.73;;;;;;;21.08;65.55;96176.50;5055410;28;20458;-72
2023/08/02 18:32:53;;;;;;;1.70;1.50;;;;;;;21.05;64.37;96187.31;5054720;28;20465;-73
2023/08/02 18:35:22;;;;;;;1.57;1.47;;;;;;;21.06;64.94;96177.94;5057598;28;21056;-73
2023/08/02 18:37:48;;;;;;;2.07;1.97;;;;;;;20.93;65.81;96187.09;5054327;28;20480;-73
2023/08/02 18:40:15;;;;;;;2.50;1.20;;;;;;;20.80;65.10;96197.00;5051571;28;20585;-72
2023/08/02 18:42:42;;;;;;;3.50;1.40;;;;;;;20.77;66.47;96192.16;5057521;28;20529;-72
2023/08/02 18:45:11;;;;;;;2.37;1.47;;;;;;;20.78;66.22;96202.03;5056276;28;20457;-73
2023/08/02 18:47:38;;;;;;;1.53;1.40;;;;;;;20.65;66.84;96211.16;5058226;28;21001;-73
2023/08/02 18:50:05;;;;;;;2.57;1.60;;;;;;;20.65;66.78;96214.72;5051095;28;20459;-73
2023/08/02 18:55:09;;;;;;;2.10;1.60;;;;;;;20.52;67.75;96218.31;5223486;22;20498;-72
2023/08/02 18:57:36;;;;;;;1.83;1.73;;;;;;;20.55;67.74;96205.88;5033140;28;20481;-73
2023/08/02 19:00:07;;;;;;;1.90;1.80;;;;;;;20.49;68.64;96215.38;5031525;28;20553;-73
2023/08/02 19:02:36;;;;;;;1.93;1.83;;;;;;;20.49;69.45;96218.13;5031803;28;20448;-72
2023/08/02 19:05:05;;;;;;;2.43;2.20;;;;;;;20.45;70.36;96228.94;5035192;28;20490;-73
2023/08/02 19:07:34;;;;;;;2.30;2.10;;;;;;;20.32;71.89;96235.25;5034839;28;21061;-72
2023/08/02 19:10:01;;;;;;;2.30;2.10;;;;;;;20.22;72.00;96260.19;5036735;28;20450;-72
2023/08/02 19:12:28;;;;;;;1.90;1.80;;;;;;;20.17;71.76;96287.75;5032260;28;20544;-73
2023/08/02 19:14:55;;;;;;;1.90;1.80;;;;;;;20.11;71.99;96312.63;5035122;28;20485;-72
2023/08/02 19:17:22;;;;;;;1.83;1.73;;;;;;;20.10;70.63;96319.22;5037887;28;20538;-72
2023/08/02 19:19:50;;;;;;;2.07;1.50;;;;;;;20.10;70.49;96321.97;5036605;28;20483;-71
2023/08/02 19:22:19;;;;;;;1.77;1.67;;;;;;;20.05;70.55;96308.34;5034991;28;20493;-73
2023/08/02 19:24:45;;;;;;;1.70;1.60;;;;;;;19.97;70.88;96289.00;5037221;28;20556;-72
2023/08/02 19:27:13;;;;;;;1.53;1.43;;;;;;;19.99;71.05;96282.09;5038064;28;20998;-72
2023/08/02 19:29:40;;;;;;;1.60;1.50;;;;;;;19.90;71.62;96278.41;5035211;28;20470;-72
2023/08/02 19:32:11;;;;;;;1.67;1.57;;;;;;;19.84;72.20;96276.06;5036510;28;20467;-71
2023/08/02 19:34:38;;;;;;;2.20;2.00;;;;;;;19.79;72.64;96275.09;5035819;28;20486;-71
2023/08/02 19:37:06;;;;;;;1.70;1.60;;;;;;;19.73;73.20;96272.72;5036550;28;20475;-83
2023/08/02 19:39:33;;;;;;;2.73;1.97;;;;;;;19.71;72.77;96284.03;5036944;28;20485;-73
2023/08/02 19:42:00;;;;;;;1.37;1.27;;;;;;;19.79;72.53;96294.31;5031023;28;20600;-73
2023/08/02 19:44:27;;;;;;;1.70;1.30;;;;;;;19.73;73.00;96300.19;5025596;28;20479;-75
2023/08/02 19:46:55;;;;;;;1.57;1.47;;;;;;;19.81;72.24;96312.41;5030713;28;20479;-72
2023/08/02 19:49:22;;;;;;;1.70;1.60;;;;;;;19.91;72.61;96320.44;5024598;28;20540;-70
2023/08/02 19:51:50;;;;;;;1.80;1.60;;;;;;;19.84;72.75;96318.06;5033040;28;20519;-71
2023/08/02 19:54:23;;;;;;;2.90;1.40;;;;;;;19.81;72.60;96317.91;5019895;28;20473;-70
2023/08/02 19:56:51;;;;;;;3.50;1.60;;;;;;;19.86;72.53;96328.75;5029382;28;20471;-71
2023/08/02 19:59:18;;;;;;;1.80;1.70;;;;;;;19.88;72.31;96343.81;5033100;28;20455;-70
2023/08/02 20:01:50;;;;;;;1.80;1.70;;;;;;;19.82;73.05;96345.00;5027444;28;20489;-70
2023/08/02 20:04:17;;;;;;;1.70;1.60;;;;;;;19.83;73.15;96354.06;5022536;28;20489;-74
2023/08/02 20:06:44;;;;;;;2.00;1.80;;;;;;;19.95;73.58;96357.97;5028062;28;20851;-74
2023/08/02 20:09:12;;;;;;;1.73;1.63;;;;;;;19.81;74.22;96376.38;5029582;28;20456;-74
2023/08/02 20:11:41;;;;;;;2.70;1.50;;;;;;;19.91;74.10;96384.41;5030246;28;20460;-73
2023/08/02 20:14:19;;;;;;;2.00;1.83;;;;;;;19.88;74.58;96385.00;5022114;28;20479;-74
2023/08/02 20:16:46;;;;;;;2.13;1.90;;;;;;;19.86;74.91;96391.91;5035199;28;20459;-76
2023/08/02 20:19:14;;;;;;;1.70;1.57;;;;;;;19.78;75.27;96415.41;5036335;28;20945;-75
2023/08/02 20:21:43;;;;;;;2.50;2.13;;;;;;;19.66;76.62;96423.28;5037659;28;20540;-74
2023/08/02 20:24:15;;;;;;;3.00;1.70;;;;;;;19.79;75.49;96417.03;5033076;28;20495;-75
2023/08/02 20:26:44;;;;;;;1.80;1.70;;;;;;;19.60;75.27;96416.25;5032288;28;20935;-74
2023/08/02 20:29:12;;;;;;;2.30;1.90;;;;;;;19.49;76.00;96421.06;5042308;28;20503;-74
2023/08/02 20:31:41;;;;;;;1.93;1.50;;;;;;;19.57;76.02;96412.16;5036079;28;20460;-73
2023/08/02 20:34:10;;;;;;;2.00;1.80;;;;;;;19.59;75.18;96400.88;5033457;28;20528;-74
2023/08/02 20:36:38;;;;;;;3.53;2.43;;;;;;;19.35;75.71;96410.03;5045739;28;20510;-73
2023/08/02 20:39:07;;;;;;;2.10;1.70;;;;;;;19.52;75.30;96403.19;5051725;28;20463;-72
2023/08/02 20:41:34;;;;;;;1.93;1.83;;;;;;;19.62;74.74;96403.03;5038231;28;20458;-72
2023/08/02 20:44:02;;;;;;;1.90;1.70;;;;;;;19.47;75.17;96417.81;5031662;28;21001;-72
2023/08/02 20:46:30;;;;;;;1.83;1.73;;;;;;;19.46;75.40;96422.47;5030433;28;20459;-72
2023/08/02 20:48:58;;;;;;;2.10;1.70;;;;;;;19.29;75.93;96416.69;5030201;28;20493;-72
2023/08/02 20:51:26;;;;;;;2.13;1.87;;;;;;;19.51;74.93;96429.81;5033927;28;20517;-73
2023/08/02 20:53:52;;;;;;;2.57;1.63;;;;;;;19.59;74.80;96434.66;5037021;28;20551;-72
2023/08/02 20:56:21;;;;;;;1.70;1.60;;;;;;;19.62;75.07;96430.50;5035880;28;20470;-72
2023/08/02 20:58:47;;;;;;;2.23;1.80;;;;;;;19.48;75.66;96438.66;5038744;28;21017;-72
2023/08/02 21:01:16;;;;;;;2.23;2.10;;;;;;;19.19;76.56;96427.81;5036676;28;20865;-72
2023/08/02 21:03:43;;;;;;;2.00;1.70;;;;;;;19.10;77.45;96438.66;5029999;28;20483;-73
2023/08/02 21:06:10;;;;;;;2.80;2.00;;;;;;;19.08;77.68;96440.06;5033350;28;20467;-73
2023/08/02 21:08:41;;;;;;;4.00;1.67;;;;;;;19.15;77.38;96435.03;5036984;28;20482;-71
2023/08/02 21:11:08;;;;;;;2.10;1.90;;;;;;;18.99;78.04;96436.34;5037232;28;20460;-71
2023/08/02 21:13:35;;;;;;;2.07;1.80;;;;;;;18.90;78.57;96429.88;5035748;28;20488;-72
2023/08/02 21:16:01;;;;;;;2.00;1.90;;;;;;;18.73;79.53;96444.09;5032279;28;20536;-72
2023/08/02 21:18:31;;;;;;;1.93;1.83;;;;;;;18.62;79.96;96448.88;5035643;28;20541;-72
2023/08/02 21:20:58;;;;;;;3.93;2.00;;;;;;;18.42;80.69;96447.19;5042043;28;20579;-72
2023/08/02 21:23:25;;;;;;;1.73;1.63;;;;;;;18.44;80.51;96457.84;5036139;28;20478;-72
2023/08/02 21:25:55;;;;;;;3.93;1.87;;;;;;;18.23;81.12;96467.38;5040632;28;21385;-73
2023/08/02 21:28:24;;;;;;;2.10;1.90;;;;;;;18.10;81.58;96469.69;5041984;28;20926;-72
2023/08/02 21:30:56;;;;;;;1.90;1.80;;;;;;;18.18;81.17;96470.19;5042431;28;20455;-72
2023/08/02 21:33:24;;;;;;;1.80;1.70;;;;;;;18.17;80.61;96454.84;5035443;28;20566;-72
2023/08/02 21:35:52;;;;;;;2.23;1.77;;;;;;;18.04;81.36;96473.59;5038349;28;21002;-72
2023/08/02 21:38:24;;;;;;;4.47;1.90;;;;;;;18.17;80.67;96471.28;5038563;28;20458;-72
2023/08/02 21:40:53;;;;;;;1.93;1.67;;;;;;;18.06;80.69;96476.84;5038556;28;20959;-72
2023/08/02 21:43:20;;;;;;;2.40;1.70;;;;;;;18.11;81.12;96487.75;5040853;28;20479;-72
2023/08/02 21:45:52;;;;;;;2.10;1.73;;;;;;;18.16;80.69;96491.56;5042394;28;20970;-72
2023/08/02 21:48:19;;;;;;;3.03;1.83;;;;;;;18.11;80.81;96490.50;5040270;28;20480;-72
2023/08/02 21:50:46;;;;;;;2.43;1.87;;;;;;;18.18;80.71;96497.56;5036487;28;20466;-73
2023/08/02 21:53:21;;;;;;;2.93;1.87;;;;;;;18.18;80.71;96497.56;5040779;28;20572;-73
2023/08/02 21:55:52;;;;;;;3.13;1.80;;;;;;;18.15;80.81;96501.69;5033836;28;21265;-73
2023/08/02 21:58:20;;;;;;;2.90;2.07;;;;;;;18.17;80.59;96498.69;5035507;28;20456;-72
2023/08/02 22:00:48;;;;;;;2.50;1.93;;;;;;;18.02;80.63;96500.44;5039258;28;20461;-72
2023/08/02 22:03:16;;;;;;;1.77;1.67;;;;;;;18.00;79.60;96519.06;5037551;28;20565;-72
2023/08/02 22:05:43;;;;;;;2.33;1.43;;;;;;;18.15;78.12;96503.63;5039074;28;20470;-72
2023/08/02 22:08:11;;;;;;;2.73;1.60;;;;;;;18.33;76.30;96514.66;5037409;28;20575;-73
2023/08/02 22:10:41;;;;;;;2.60;1.53;;;;;;;18.57;72.72;96528.38;5041926;28;20554;-72
2023/08/02 22:13:14;;;;;;;2.80;1.80;;;;;;;18.70;71.18;96533.22;5035056;28;20475;-72
2023/08/02 22:15:41;;;;;;;3.57;1.80;;;;;;;18.83;69.18;96542.66;5037628;28;20467;-72
2023/08/02 22:18:10;;;;;;;3.70;2.20;;;;;;;18.97;67.49;96551.00;5038298;28;20466;-73
2023/08/02 22:20:37;;;;;;;5.10;1.90;;;;;;;18.95;67.46;96553.22;5039462;28;20456;-72
2023/08/02 22:23:04;;;;;;;3.37;1.70;;;;;;;18.97;66.98;96545.50;5040402;28;20480;-72
2023/08/02 22:25:31;;;;;;;2.73;1.47;;;;;;;19.00;65.11;96544.94;5037328;28;20565;-72
2023/08/02 22:27:59;;;;;;;2.47;1.70;;;;;;;19.11;64.87;96543.69;5037553;28;20519;-72
2023/08/02 22:30:26;;;;;;;3.70;2.17;;;;;;;19.13;63.89;96558.75;5041293;28;20465;-73
2023/08/02 22:32:53;;;;;;;4.70;1.87;;;;;;;19.17;63.14;96556.22;5033922;28;20472;-72
2023/08/02 22:35:19;;;;;;;4.00;1.90;;;;;;;19.24;62.84;96564.91;5038105;28;20478;-73
2023/08/02 22:37:47;;;;;;;3.10;1.80;;;;;;;19.42;62.60;96546.84;5038656;28;20495;-72
2023/08/02 22:40:13;;;;;;;3.37;1.87;;;;;;;19.31;63.59;96567.31;5039381;28;20455;-72
2023/08/02 22:42:40;;;;;;;3.37;1.87;;;;;;;19.18;64.39;96574.31;5037301;28;20486;-73
2023/08/02 22:45:09;;;;;;;4.77;1.63;;;;;;;19.08;64.85;96568.97;5040846;28;21038;-72
2023/08/02 22:47:36;;;;;;;3.70;1.70;;;;;;;19.01;63.97;96568.50;5039764;28;20492;-73
2023/08/02 22:50:03;;;;;;;3.50;2.00;;;;;;;19.09;64.69;96582.41;5035148;28;20455;-72
2023/08/02 22:52:30;;;;;;;6.83;2.10;;;;;;;19.03;65.55;96575.31;5037820;28;20486;-72
2023/08/02 22:54:57;;;;;;;4.90;2.00;;;;;;;18.98;65.40;96580.03;5041291;28;20533;-72
2023/08/02 22:57:25;;;;;;;4.03;1.90;;;;;;;18.93;65.46;96582.84;5036588;28;20525;-73
2023/08/02 22:59:52;;;;;;;3.63;1.70;;;;;;;18.97;65.32;96578.41;5033787;28;20469;-72
2023/08/02 23:02:20;;;;;;;3.47;2.00;;;;;;;18.93;65.45;96580.91;5037105;28;20455;-72
2023/08/02 23:04:51;;;;;;;3.77;1.70;;;;;;;19.02;64.94;96575.63;5036772;28;20482;-72
2023/08/02 23:07:20;;;;;;;5.40;1.90;;;;;;;19.02;64.64;96570.13;5041039;28;20457;-73
2023/08/02 23:09:47;;;;;;;4.90;2.13;;;;;;;19.06;64.61;96587.66;5038839;28;20543;-72
2023/08/02 23:12:16;;;;;;;6.97;1.80;;;;;;;18.99;64.70;96578.94;5035599;28;20492;-73
2023/08/02 23:14:43;;;;;;;2.83;1.90;;;;;;;18.98;64.87;96580.03;5037755;28;20457;-73
2023/08/02 23:17:10;;;;;;;2.80;1.50;;;;;;;19.02;64.98;96581.09;5036185;28;21153;-72
2023/08/02 23:19:43;;;;;;;4.40;2.03;;;;;;;19.22;65.30;96586.34;5038530;28;20455;-72
2023/08/02 23:22:12;;;;;;;2.70;1.67;;;;;;;19.04;66.62;96595.34;5037114;28;20901;-73
2023/08/02 23:24:41;;;;;;;3.00;2.10;;;;;;;19.03;69.04;96593.72;5039768;28;20459;-72
2023/08/02 23:27:20;;;;;;;3.10;1.70;;;;;;;18.78;70.43;96587.41;5036896;28;20485;-72
2023/08/02 23:29:46;;;;;;;5.03;1.70;;;;;;;18.82;71.10;96595.06;5038227;28;20493;-72
2023/08/02 23:32:13;;;;;;;4.90;1.97;;;;;;;18.68;72.00;96597.66;5035482;28;20546;-72
2023/08/02 23:34:41;;;;;;;2.13;1.50;;;;;;;18.54;72.54;96591.16;5037506;28;20563;-72
2023/08/02 23:37:08;;;;;;;2.60;1.50;;;;;;;18.23;73.35;96601.56;5038216;28;20554;-73
2023/08/02 23:39:35;;;;;;;4.90;1.87;;;;;;;18.33;73.15;96602.31;5035643;28;20484;-73
2023/08/02 23:42:02;;;;;;;1.97;1.80;;;;;;;18.40;73.14;96597.34;5039374;28;20465;-72
2023/08/02 23:44:29;;;;;;;2.83;1.70;;;;;;;18.17;73.67;96592.59;5035286;28;20540;-72
2023/08/02 23:46:55;;;;;;;4.83;2.40;;;;;;;18.18;73.22;96599.72;5024848;28;20455;-72
2023/08/02 23:49:22;;;;;;;1.90;1.73;;;;;;;18.19;73.63;96600.53;5040233;28;20534;-72
2023/08/02 23:51:50;;;;;;;2.50;1.53;;;;;;;18.23;73.47;96596.09;5036572;28;20534;-72
2023/08/02 23:54:17;;;;;;;2.30;1.53;;;;;;;18.18;72.66;96598.91;5036583;28;20905;-72
2023/08/02 23:56:44;;;;;;;4.40;1.90;;;;;;;18.22;72.52;96588.97;5036298;28;20470;-72
2023/08/02 23:59:10;;;;;;;3.00;1.43;;;;;;;18.29;72.61;96594.97;5035388;28;20469;-73
